Time;durP1;ratioP1;P1;durP2;ratioP2;P2;SDS_P1;SDS_P2;PMS_P1;PMS_P2;Temp;Humidity;BMP_temperature;BMP_pressure;BME280_temperature;BME280_humidity;BME280_pressure;Samples;Min_cycle;Max_cycle;Signal;HPM_P1;HPM_P2
2023/04/25 00:03:38;;;;;;;1.00;0.50;;;;;;;10.61;62.40;99767.89;107790;1282;59295;-89
2023/04/25 00:07:23;;;;;;;0.40;0.40;;;;;;;10.53;62.39;99769.49;107558;1283;176294;-88
2023/04/25 00:11:10;;;;;;;0.40;0.30;;;;;;;10.47;62.32;99770.39;107749;1282;73392;-88
2023/04/25 00:14:57;;;;;;;1.20;0.50;;;;;;;10.40;62.28;99768.89;107746;1283;67525;-88
2023/04/25 00:18:46;;;;;;;0.40;0.30;;;;;;;10.34;62.37;99772.86;107746;1283;70814;-88
2023/04/25 00:22:30;;;;;;;0.50;0.50;;;;;;;10.30;62.38;99772.11;108502;1272;58421;-89
2023/04/25 00:26:17;;;;;;;0.80;0.30;;;;;;;10.28;62.22;99771.81;108630;1271;59319;-88
2023/04/25 00:30:03;;;;;;;0.70;0.30;;;;;;;10.18;62.23;99770.17;108640;1273;73321;-88
2023/04/25 00:33:50;;;;;;;0.30;0.30;;;;;;;10.13;62.31;99774.78;108022;1280;67449;-88
2023/04/25 00:37:37;;;;;;;0.40;0.30;;;;;;;10.08;62.22;99778.36;108562;1273;72359;-88
2023/04/25 00:41:24;;;;;;;0.20;0.20;;;;;;;10.03;62.23;99778.34;108625;1272;59530;-88
2023/04/25 00:45:10;;;;;;;0.80;0.50;;;;;;;9.97;62.26;99778.31;108620;1275;58992;-88
2023/04/25 00:48:57;;;;;;;0.20;0.20;;;;;;;9.93;62.31;99776.53;108607;1273;73337;-88
2023/04/25 00:52:44;;;;;;;1.00;0.40;;;;;;;9.90;62.32;99780.75;108577;1272;67281;-87
2023/04/25 00:56:31;;;;;;;0.50;0.40;;;;;;;9.87;62.25;99781.17;108608;1273;71276;-88
2023/04/25 01:00:17;;;;;;;0.60;0.40;;;;;;;9.84;62.31;99785.92;108580;1272;58906;-88
2023/04/25 01:04:04;;;;;;;0.60;0.60;;;;;;;9.82;62.30;99788.21;108040;1280;58988;-88
2023/04/25 01:07:51;;;;;;;4.10;0.50;;;;;;;9.77;62.32;99791.26;103362;1286;5053359;-88
2023/04/25 01:11:40;;;;;;;0.40;0.30;;;;;;;9.77;62.37;99798.16;108045;1282;67795;-88
2023/04/25 01:15:25;;;;;;;0.90;0.50;;;;;;;9.76;62.39;99793.02;108060;1280;70315;-88
2023/04/25 01:19:12;;;;;;;1.20;0.80;;;;;;;9.75;62.42;99794.23;107382;1286;59404;-88
2023/04/25 01:22:59;;;;;;;0.70;0.60;;;;;;;9.73;62.31;99787.93;107383;1286;59243;-88
2023/04/25 01:26:49;;;;;;;1.10;0.80;;;;;;;9.69;62.32;99788.39;107370;1286;73421;-88
2023/04/25 01:30:33;;;;;;;1.10;0.60;;;;;;;9.65;62.39;99785.89;107417;1286;68490;-88
2023/04/25 01:34:19;;;;;;;0.80;0.60;;;;;;;9.63;62.26;99788.52;107398;1286;72884;-88
2023/04/25 01:38:06;;;;;;;1.50;0.80;;;;;;;9.60;62.42;99795.83;107426;1286;59355;-88
2023/04/25 01:41:53;;;;;;;1.30;0.60;;;;;;;9.58;62.39;99796.21;107909;1280;60902;-88
2023/04/25 01:45:40;;;;;;;3.00;0.80;;;;;;;9.57;62.40;99799.87;108613;1271;74500;-88
2023/04/25 01:49:27;;;;;;;1.90;0.90;;;;;;;9.54;62.39;99798.04;108636;1272;68303;-88
2023/04/25 01:53:14;;;;;;;2.40;1.20;;;;;;;9.54;62.51;99800.11;108629;1273;72183;-88
2023/04/25 01:57:01;;;;;;;0.70;0.50;;;;;;;9.52;62.42;99796.71;109143;1264;59315;-88
2023/04/25 02:00:47;;;;;;;1.10;0.70;;;;;;;9.49;62.49;99797.83;109169;1264;59096;-88
2023/04/25 02:04:33;;;;;;;4.00;0.70;;;;;;;9.49;62.49;99800.58;109148;1263;73125;-88
2023/04/25 02:08:20;;;;;;;3.80;1.80;;;;;;;9.46;62.47;99803.06;109198;1264;67447;-88
2023/04/25 02:12:07;;;;;;;5.60;1.80;;;;;;;9.41;62.51;99811.77;109165;1263;71041;-88
2023/04/25 02:15:53;;;;;;;4.30;1.80;;;;;;;9.37;62.57;99814.45;108598;1272;59023;-88
2023/04/25 02:19:40;;;;;;;3.90;1.60;;;;;;;9.34;62.57;99814.58;108597;1273;59945;-88
2023/04/25 02:23:27;;;;;;;2.40;1.10;;;;;;;9.33;62.63;99814.60;108615;1273;73023;-88
2023/04/25 02:27:14;;;;;;;1.50;0.80;;;;;;;9.33;62.64;99815.10;108607;1276;66153;-88
2023/04/25 02:31:00;;;;;;;1.30;0.90;;;;;;;9.30;62.59;99818.43;108578;1272;72844;-88
2023/04/25 02:34:47;;;;;;;1.10;1.00;;;;;;;9.21;62.65;99818.14;107869;1282;59332;-88
2023/04/25 02:38:34;;;;;;;2.60;1.00;;;;;;;9.16;62.63;99816.36;107298;1286;59100;-88
2023/04/25 02:42:21;;;;;;;2.30;0.70;;;;;;;9.15;62.82;99817.07;106644;1296;74646;-88
2023/04/25 02:46:08;;;;;;;2.70;0.80;;;;;;;9.16;62.76;99818.92;106657;1292;67065;-88
2023/04/25 02:49:54;;;;;;;0.60;0.50;;;;;;;9.16;62.70;99816.52;106640;1292;71187;-88
2023/04/25 02:53:41;;;;;;;1.50;0.60;;;;;;;9.13;62.76;99812.64;107381;1286;59521;-88
2023/04/25 02:57:28;;;;;;;1.70;1.10;;;;;;;9.08;62.81;99808.81;107471;1286;59321;-88
2023/04/25 03:01:15;;;;;;;1.80;0.80;;;;;;;9.06;62.81;99805.08;107517;1286;73111;-88
2023/04/25 03:05:03;;;;;;;2.20;1.00;;;;;;;9.00;62.91;99805.88;107448;1286;67719;-88
2023/04/25 03:08:48;;;;;;;2.50;0.90;;;;;;;8.95;62.81;99802.38;106619;1292;72500;-88
2023/04/25 03:12:35;;;;;;;1.50;0.90;;;;;;;8.91;62.88;99801.80;107059;1288;59337;-87
2023/04/25 03:16:22;;;;;;;4.50;1.20;;;;;;;8.88;62.93;99801.67;107954;1279;59513;-88
2023/04/25 03:20:08;;;;;;;1.90;1.10;;;;;;;8.86;62.88;99802.75;108517;1273;72515;-88
2023/04/25 03:23:55;;;;;;;1.10;1.00;;;;;;;8.81;62.97;99797.92;108063;1279;67120;-88
2023/04/25 03:27:42;;;;;;;1.50;0.90;;;;;;;8.76;62.98;99793.91;107448;1285;71284;-88
2023/04/25 03:31:29;;;;;;;1.50;1.10;;;;;;;8.76;63.05;99792.70;107475;1286;59340;-88
2023/04/25 03:35:15;;;;;;;1.40;1.00;;;;;;;8.73;63.08;99793.62;106951;1289;59355;-88
2023/04/25 03:39:02;;;;;;;1.00;1.00;;;;;;;8.68;63.12;99792.02;106427;1295;72764;-87
2023/04/25 03:42:49;;;;;;;2.80;1.00;;;;;;;8.65;63.01;99792.59;106434;1295;67507;-87
2023/04/25 03:46:36;;;;;;;1.70;1.10;;;;;;;8.61;63.18;99791.81;106767;1291;71482;-88
2023/04/25 03:50:23;;;;;;;4.70;1.30;;;;;;;8.60;63.23;99798.70;106809;1291;59477;-88
2023/04/25 03:54:09;;;;;;;1.60;1.00;;;;;;;8.59;63.20;99802.84;106383;1294;59034;-88
2023/04/25 03:57:57;;;;;;;2.70;1.70;;;;;;;8.59;63.25;99805.77;105772;1303;73052;-88
2023/04/25 04:01:43;;;;;;;1.30;1.10;;;;;;;8.61;63.25;99809.67;105848;1300;68521;-88
2023/04/25 04:05:30;;;;;;;1.80;1.10;;;;;;;8.61;63.38;99808.48;106316;1294;72351;-88
2023/04/25 04:09:17;;;;;;;1.10;1.10;;;;;;;8.62;63.42;99814.64;106345;1295;59508;-88
2023/04/25 04:13:03;;;;;;;5.90;1.70;;;;;;;8.65;63.42;99817.17;106920;1288;59507;-88
2023/04/25 04:16:50;;;;;;;3.30;1.10;;;;;;;8.68;63.50;99817.44;107678;1282;73325;-88
2023/04/25 04:20:37;;;;;;;2.80;1.20;;;;;;;8.71;63.47;99817.38;107753;1282;67056;-87
2023/04/25 04:24:24;;;;;;;2.10;1.30;;;;;;;8.73;63.58;99823.53;107722;1283;71409;-88
2023/04/25 04:28:10;;;;;;;2.00;1.40;;;;;;;8.81;63.66;99822.33;107797;1281;59164;-89
2023/04/25 04:31:57;;;;;;;2.60;1.20;;;;;;;8.90;63.70;99830.16;108555;1273;61889;-89
2023/04/25 04:35:44;;;;;;;2.80;1.30;;;;;;;9.01;63.67;99831.49;109176;1263;73021;-89
2023/04/25 04:39:34;;;;;;;2.30;1.40;;;;;;;9.11;63.72;99834.86;109202;1263;67200;-89
2023/04/25 04:43:22;;;;;;;1.60;1.40;;;;;;;9.27;63.80;99836.57;109149;1263;73079;-89
2023/04/25 04:47:12;;;;;;;1.90;1.70;;;;;;;9.42;63.82;99838.42;107974;1280;58905;-89
2023/04/25 04:50:59;;;;;;;2.50;2.00;;;;;;;9.59;63.86;99840.25;107990;1280;58981;-88
2023/04/25 04:54:45;;;;;;;2.30;1.90;;;;;;;9.75;63.88;99840.04;107976;1279;73230;-88
2023/04/25 04:58:32;;;;;;;2.00;1.90;;;;;;;9.88;63.88;99838.14;107929;1280;67339;-88
2023/04/25 05:02:19;;;;;;;3.10;2.40;;;;;;;10.04;63.87;99834.96;107406;1286;71495;-88
2023/04/25 05:06:06;;;;;;;4.00;2.30;;;;;;;10.15;63.88;99835.35;107399;1285;58998;-88
2023/04/25 05:09:53;;;;;;;3.70;2.80;;;;;;;10.31;63.94;99834.80;106830;1291;58922;-88
2023/04/25 05:13:39;;;;;;;2.80;2.30;;;;;;;10.48;64.02;99839.43;106802;1291;74417;-88
2023/04/25 05:17:26;;;;;;;2.50;2.20;;;;;;;10.70;64.04;99839.19;106257;1298;68684;-88
2023/04/25 05:21:13;;;;;;;2.60;2.40;;;;;;;10.87;63.97;99837.79;106222;1298;71686;-88
2023/04/25 05:25:00;;;;;;;3.00;2.10;;;;;;;11.15;63.97;99841.08;107276;1286;59513;-88
2023/04/25 05:28:47;;;;;;;4.40;2.70;;;;;;;11.60;64.01;99839.27;107336;1286;58968;-88
2023/04/25 05:32:33;;;;;;;7.40;2.60;;;;;;;12.20;63.99;99838.45;107343;1286;73228;-88
2023/04/25 05:36:21;;;;;;;5.00;2.40;;;;;;;12.82;63.87;99843.09;107349;1286;67352;-88
2023/04/25 05:40:07;;;;;;;2.00;1.70;;;;;;;13.33;63.67;99840.10;108063;1280;72836;-88
2023/04/25 05:43:54;;;;;;;2.50;2.30;;;;;;;13.78;63.62;99837.20;107444;1285;58860;-88
2023/04/25 05:47:40;;;;;;;2.30;2.10;;;;;;;14.21;63.29;99837.59;107517;1285;59011;-88
2023/04/25 05:51:27;;;;;;;4.90;2.40;;;;;;;14.73;63.32;99839.96;107509;1285;73053;-88
2023/04/25 05:55:14;;;;;;;5.30;1.90;;;;;;;15.11;62.96;99843.20;107998;1279;67369;-88
2023/04/25 05:59:01;;;;;;;3.40;2.60;;;;;;;15.22;62.51;99848.78;107196;1287;71354;-89
2023/04/25 06:02:47;;;;;;;2.10;1.90;;;;;;;15.13;62.35;99845.39;107128;1287;58951;-89
2023/04/25 06:06:34;;;;;;;3.70;2.70;;;;;;;15.13;62.56;99846.61;107176;1287;58857;-89
2023/04/25 06:10:22;;;;;;;2.90;2.00;;;;;;;15.44;62.25;99848.77;106580;1292;74274;-88
2023/04/25 06:14:08;;;;;;;3.80;1.90;;;;;;;15.79;62.00;99847.05;106075;1300;68578;-88
2023/04/25 06:17:55;;;;;;;2.50;2.00;;;;;;;16.37;62.08;99843.36;106061;1297;71225;-88
2023/04/25 06:21:42;;;;;;;3.40;1.70;;;;;;;16.85;61.93;99850.20;106728;1292;59113;-89
2023/04/25 06:25:28;;;;;;;3.70;2.10;;;;;;;17.16;61.81;99850.95;107144;1288;60899;-89
2023/04/25 06:29:15;;;;;;;3.20;2.00;;;;;;;16.93;61.22;99853.61;107104;1288;74238;-89
2023/04/25 06:33:02;;;;;;;4.40;2.30;;;;;;;16.55;61.14;99855.48;107075;1288;68493;-89
2023/04/25 06:36:49;;;;;;;4.60;2.20;;;;;;;16.00;60.66;99855.05;107053;1288;73014;-89
2023/04/25 06:40:35;;;;;;;1.80;1.60;;;;;;;15.34;60.69;99863.31;106351;1294;58846;-89
2023/04/25 06:44:23;;;;;;;2.70;1.70;;;;;;;14.90;60.37;99858.78;106388;1294;59302;-89
2023/04/25 06:48:09;;;;;;;3.90;1.90;;;;;;;14.49;60.21;99861.16;107040;1288;74567;-88
2023/04/25 06:51:56;;;;;;;4.50;2.10;;;;;;;14.18;60.14;99859.20;107864;1279;68380;-88
2023/04/25 06:55:43;;;;;;;3.30;1.90;;;;;;;13.93;60.12;99863.93;107893;1279;71444;-88
2023/04/25 06:59:29;;;;;;;4.80;2.20;;;;;;;13.74;59.92;99863.16;107886;1280;59305;-88
2023/04/25 07:03:16;;;;;;;2.60;2.10;;;;;;;13.46;59.79;99858.98;107918;1279;58965;-88
2023/04/25 07:07:03;;;;;;;4.70;2.30;;;;;;;13.32;59.74;99866.47;107891;1279;73164;-88
2023/04/25 07:10:50;;;;;;;3.30;2.10;;;;;;;13.17;59.61;99860.59;107900;1279;67351;-88
2023/04/25 07:14:37;;;;;;;3.70;2.10;;;;;;;13.01;59.44;99860.55;108534;1272;71361;-88
2023/04/25 07:18:23;;;;;;;3.50;1.90;;;;;;;12.89;59.42;99859.60;109107;1263;59153;-88
2023/04/25 07:22:10;;;;;;;6.50;2.00;;;;;;;12.84;59.28;99860.83;109137;1263;59282;-88
2023/04/25 07:25:57;;;;;;;7.00;2.10;;;;;;;12.79;59.22;99859.83;109143;1263;73055;-88
2023/04/25 07:29:43;;;;;;;6.00;2.50;;;;;;;12.80;59.19;99863.07;109138;1263;67227;-88
2023/04/25 07:33:30;;;;;;;3.10;2.30;;;;;;;12.77;59.20;99863.36;109105;1263;71014;-88
2023/04/25 07:37:18;;;;;;;4.80;1.90;;;;;;;12.81;59.26;99863.72;109109;1263;58872;-88
2023/04/25 07:41:03;;;;;;;3.00;2.20;;;;;;;12.91;59.21;99865.09;109165;1263;59643;-88
2023/04/25 07:44:51;;;;;;;4.20;2.10;;;;;;;12.96;58.96;99869.39;108528;1273;74453;-88
2023/04/25 07:48:37;;;;;;;5.00;2.10;;;;;;;12.99;58.98;99872.55;108570;1272;67179;-88
2023/04/25 07:52:23;;;;;;;4.30;2.10;;;;;;;13.02;58.96;99872.74;108535;1273;71830;-88
2023/04/25 07:56:10;;;;;;;5.30;2.50;;;;;;;13.06;58.95;99872.25;108567;1273;58926;-88
2023/04/25 07:59:57;;;;;;;5.30;2.40;;;;;;;13.14;58.86;99879.91;108563;1272;59950;-88
2023/04/25 08:03:44;;;;;;;9.00;4.00;;;;;;;13.21;58.79;99878.98;108561;1273;74494;-88
2023/04/25 08:07:30;;;;;;;6.80;2.40;;;;;;;13.28;58.85;99880.10;108574;1273;68399;-89
2023/04/25 08:11:17;;;;;;;8.40;2.60;;;;;;;13.37;58.95;99875.77;108545;1273;71252;-88
2023/04/25 08:15:04;;;;;;;2.80;1.60;;;;;;;13.40;58.70;99877.05;108545;1272;58969;-88
2023/04/25 08:18:51;;;;;;;3.40;1.80;;;;;;;13.51;58.85;99878.83;107798;1282;59888;-88
2023/04/25 08:22:38;;;;;;;5.20;2.50;;;;;;;13.65;58.77;99877.39;108554;1273;73626;-88
2023/04/25 08:26:24;;;;;;;4.30;2.40;;;;;;;13.81;58.66;99878.63;108542;1273;67113;-88
2023/04/25 08:30:11;;;;;;;3.10;1.90;;;;;;;13.99;58.66;99889.70;108196;1277;71281;-88
2023/04/25 08:33:58;;;;;;;3.50;2.10;;;;;;;14.09;58.52;99888.55;107741;1282;59045;-88
2023/04/25 08:37:45;;;;;;;3.60;1.80;;;;;;;14.10;58.43;99886.75;107767;1281;59279;-88
2023/04/25 08:41:31;;;;;;;8.10;2.40;;;;;;;14.08;58.48;99886.14;107753;1282;73265;-88
2023/04/25 08:45:18;;;;;;;3.10;1.80;;;;;;;14.20;58.51;99893.11;107741;1282;68468;-88
2023/04/25 08:49:05;;;;;;;3.70;2.10;;;;;;;14.35;58.33;99887.09;107186;1286;71080;-88
2023/04/25 08:52:52;;;;;;;3.60;2.10;;;;;;;14.43;58.31;99892.83;107197;1287;58999;-88
2023/04/25 08:56:39;;;;;;;3.00;2.10;;;;;;;14.42;58.19;99895.13;107170;1287;59920;-88
2023/04/25 09:00:26;;;;;;;6.00;2.50;;;;;;;14.32;58.15;99900.55;107176;1286;73262;-88
2023/04/25 09:04:12;;;;;;;3.60;2.70;;;;;;;14.16;58.11;99899.35;106422;1293;68773;-88
2023/04/25 09:08:00;;;;;;;4.60;1.90;;;;;;;14.13;58.10;99905.71;106733;1291;71334;-88
2023/04/25 09:11:46;;;;;;;3.50;1.80;;;;;;;14.13;58.04;99912.97;107375;1285;59079;-88
2023/04/25 09:15:42;;;;;;;5.40;1.80;;;;;;;14.19;57.97;99913.26;102823;1287;5463796;-88
2023/04/25 09:19:28;;;;;;;3.90;1.90;;;;;;;14.24;57.90;99913.90;106737;1291;73260;-88
2023/04/25 09:23:15;;;;;;;3.10;1.70;;;;;;;14.30;57.85;99910.72;106725;1292;67551;-89
2023/04/25 09:27:02;;;;;;;2.30;1.90;;;;;;;14.34;57.77;99917.31;107327;1285;72983;-88
2023/04/25 09:30:49;;;;;;;4.40;1.90;;;;;;;14.24;57.66;99925.70;107362;1284;59059;-88
2023/04/25 09:34:41;;;;;;;3.50;2.00;;;;;;;14.18;57.67;99925.61;107811;1280;59044;-89
2023/04/25 09:38:27;;;;;;;3.40;1.80;;;;;;;14.19;57.77;99924.15;107794;1280;74672;-88
2023/04/25 09:42:15;;;;;;;2.40;1.80;;;;;;;14.36;57.70;99921.89;108021;1278;68381;-88
2023/04/25 09:46:01;;;;;;;3.90;1.80;;;;;;;14.45;57.50;99920.52;108027;1279;71208;-88
2023/04/25 09:49:48;;;;;;;2.40;1.50;;;;;;;14.37;57.32;99928.43;108055;1278;59352;-88
2023/04/25 09:53:37;;;;;;;3.90;1.40;;;;;;;14.18;57.24;99929.39;108066;1280;60431;-88
2023/04/25 09:57:27;;;;;;;4.50;1.90;;;;;;;13.89;57.16;99935.66;108526;1273;74837;-88
2023/04/25 10:01:14;;;;;;;3.20;1.60;;;;;;;13.63;57.28;99939.15;108553;1272;67617;-88
2023/04/25 10:05:00;;;;;;;5.40;1.90;;;;;;;13.42;57.28;99939.98;108527;1274;71199;-88
2023/04/25 10:08:50;;;;;;;3.40;2.00;;;;;;;13.26;57.18;99940.75;108515;1273;59000;-88
2023/04/25 10:12:37;;;;;;;6.30;2.00;;;;;;;13.21;57.24;99942.33;108529;1273;59641;-88
2023/04/25 10:16:23;;;;;;;2.50;1.60;;;;;;;13.27;57.27;99943.13;108557;1273;74437;-89
2023/04/25 10:20:11;;;;;;;4.30;2.20;;;;;;;13.27;57.21;99941.77;109112;1263;68741;-88
2023/04/25 10:23:57;;;;;;;4.80;1.90;;;;;;;13.30;57.12;99942.70;108471;1273;70290;-88
2023/04/25 10:27:43;;;;;;;3.00;1.90;;;;;;;13.33;57.15;99943.96;108449;1272;59118;-88
2023/04/25 10:31:42;;;;;;;2.50;1.30;;;;;;;13.35;57.01;99944.92;108530;1272;58874;-88
2023/04/25 10:35:35;;;;;;;3.00;1.80;;;;;;;13.38;57.03;99943.77;108531;1273;73060;-88
2023/04/25 10:39:24;;;;;;;2.80;1.50;;;;;;;13.45;57.07;99940.36;108017;1279;68519;-88
2023/04/25 10:43:14;;;;;;;3.40;1.90;;;;;;;13.56;57.00;99947.38;107997;1280;71301;-88
2023/04/25 10:47:07;;;;;;;3.30;1.70;;;;;;;13.73;56.94;99948.08;107988;1279;59034;-88
2023/04/25 10:50:59;;;;;;;3.40;2.00;;;;;;;13.82;56.82;99942.16;107998;1278;58971;-86
2023/04/25 10:54:46;;;;;;;2.90;1.70;;;;;;;13.96;56.91;99944.58;107965;1280;73249;-86
2023/04/25 10:58:32;;;;;;;4.20;2.10;;;;;;;14.05;56.59;99950.59;108010;1279;68342;-86
2023/04/25 11:02:25;;;;;;;7.10;2.40;;;;;;;14.02;56.85;99949.38;108575;1271;71445;-87
2023/04/25 11:06:12;;;;;;;6.40;2.50;;;;;;;14.00;56.70;99949.79;108565;1271;59249;-86
2023/04/25 11:09:58;;;;;;;3.90;2.00;;;;;;;14.05;56.64;99946.95;108587;1271;58985;-87
2023/04/25 11:13:45;;;;;;;2.90;1.70;;;;;;;14.06;56.37;99948.30;108583;1272;72576;-86
2023/04/25 11:17:39;;;;;;;2.80;2.20;;;;;;;14.04;56.49;99945.96;109113;1263;68238;-86
2023/04/25 11:21:25;;;;;;;3.70;1.60;;;;;;;14.07;56.49;99947.56;108520;1273;71254;-87
2023/04/25 11:25:11;;;;;;;2.40;1.70;;;;;;;14.10;56.36;99948.13;108567;1273;58340;-87
2023/04/25 11:28:59;;;;;;;4.30;1.40;;;;;;;14.10;56.18;99944.13;107823;1282;59764;-87
2023/04/25 11:32:45;;;;;;;4.20;1.50;;;;;;;14.15;56.36;99943.42;107828;1281;74369;-86
2023/04/25 11:36:31;;;;;;;2.50;1.40;;;;;;;14.20;56.10;99950.30;107806;1283;67944;-87
2023/04/25 11:40:18;;;;;;;4.00;1.20;;;;;;;14.23;56.19;99953.98;107804;1281;71272;-86
2023/04/25 11:44:05;;;;;;;2.00;1.40;;;;;;;14.28;56.10;99953.97;107790;1281;59163;-86
2023/04/25 11:47:52;;;;;;;4.30;1.40;;;;;;;14.32;55.91;99957.96;107219;1286;60093;-86
2023/04/25 11:51:39;;;;;;;3.30;1.10;;;;;;;14.40;55.91;99956.09;106790;1291;73415;-86
2023/04/25 11:55:28;;;;;;;2.30;1.10;;;;;;;14.52;55.89;99959.23;106817;1290;68599;-86
2023/04/25 11:59:22;;;;;;;1.20;1.10;;;;;;;14.58;55.79;99962.59;106916;1289;72208;-86
2023/04/25 12:03:08;;;;;;;2.70;1.40;;;;;;;14.59;55.72;99959.93;106923;1289;59052;-86
2023/04/25 12:06:55;;;;;;;2.70;1.20;;;;;;;14.57;55.65;99963.48;107387;1286;59450;-86
2023/04/25 12:10:44;;;;;;;2.40;1.70;;;;;;;14.41;55.50;99966.29;107158;1289;73288;-86
2023/04/25 12:14:47;;;;;;;3.70;1.70;;;;;;;14.14;55.60;99969.08;107130;1289;67237;-87
2023/04/25 12:18:33;;;;;;;3.30;1.90;;;;;;;13.89;55.46;99971.19;107094;1288;71354;-87
2023/04/25 12:22:20;;;;;;;5.20;2.20;;;;;;;13.70;55.56;99975.24;107089;1288;59067;-87
2023/04/25 12:26:17;;;;;;;5.30;2.10;;;;;;;13.52;55.57;99981.32;107015;1288;59895;-86
2023/04/25 12:30:10;;;;;;;3.30;1.60;;;;;;;13.42;55.58;99983.23;107372;1285;74242;-86
2023/04/25 12:33:57;;;;;;;2.30;1.50;;;;;;;13.31;55.63;99998.55;106905;1291;67381;-87
2023/04/25 12:37:44;;;;;;;2.40;1.40;;;;;;;13.15;55.68;100000.70;107791;1281;72466;-87
2023/04/25 12:41:31;;;;;;;4.00;1.50;;;;;;;12.96;56.10;100004.84;107128;1286;59125;-86
2023/04/25 12:45:17;;;;;;;4.10;1.50;;;;;;;12.88;56.34;100008.40;107190;1289;58785;-87
2023/04/25 12:49:05;;;;;;;1.90;1.20;;;;;;;12.91;56.51;100004.48;107549;1283;73256;-86
2023/04/25 12:52:51;;;;;;;2.60;1.40;;;;;;;12.99;56.62;100001.61;107501;1283;67416;-86
2023/04/25 12:56:38;;;;;;;2.00;1.30;;;;;;;13.16;56.80;100002.73;107526;1283;72638;-86
2023/04/25 13:00:26;;;;;;;1.90;1.20;;;;;;;13.37;56.72;100000.24;106894;1289;59212;-86
2023/04/25 13:04:12;;;;;;;2.40;1.10;;;;;;;13.57;56.71;99995.65;107379;1286;60092;-86
2023/04/25 13:07:59;;;;;;;1.20;1.00;;;;;;;13.73;56.35;99991.92;106674;1291;74530;-86
2023/04/25 13:11:45;;;;;;;2.40;1.10;;;;;;;13.84;56.50;99986.63;107291;1286;67105;-86
2023/04/25 13:15:32;;;;;;;1.60;1.10;;;;;;;13.97;56.51;99996.87;107278;1286;72938;-86
2023/04/25 13:19:19;;;;;;;1.60;1.40;;;;;;;13.73;56.14;100005.61;107683;1283;59209;-86
2023/04/25 13:23:06;;;;;;;0.40;0.40;;;;;;;13.45;56.32;100010.85;107728;1282;60123;-87
2023/04/25 13:26:52;;;;;;;1.10;0.80;;;;;;;13.22;56.27;100013.79;107478;1283;221434;-86
2023/04/25 13:30:39;;;;;;;0.90;0.40;;;;;;;13.04;56.29;100025.11;107708;1282;67399;-86
2023/04/25 13:34:26;;;;;;;0.30;0.30;;;;;;;12.95;56.23;100035.84;107675;1282;71196;-87
2023/04/25 13:38:13;;;;;;;0.50;0.50;;;;;;;12.81;56.31;100038.06;108462;1273;59507;-87
2023/04/25 13:42:00;;;;;;;0.50;0.40;;;;;;;12.70;56.60;100046.23;107892;1280;58911;-86
2023/04/25 13:45:46;;;;;;;1.10;0.30;;;;;;;12.51;56.57;100045.98;108479;1273;73083;-86
2023/04/25 13:49:33;;;;;;;1.10;0.60;;;;;;;12.39;56.76;100046.94;108417;1274;68873;-86
2023/04/25 13:53:20;;;;;;;2.60;0.40;;;;;;;12.29;56.84;100049.86;107867;1277;72495;-86
2023/04/25 13:57:07;;;;;;;0.60;0.50;;;;;;;12.22;56.92;100049.55;107941;1277;59298;-86
2023/04/25 14:00:53;;;;;;;1.40;0.60;;;;;;;12.11;56.88;100043.15;107905;1277;59058;-86
2023/04/25 14:04:40;;;;;;;1.10;0.80;;;;;;;12.06;56.90;100051.61;107986;1277;74511;-86
2023/04/25 14:08:28;;;;;;;0.50;0.50;;;;;;;12.07;57.05;100054.52;107266;1286;69103;-87
2023/04/25 14:12:14;;;;;;;0.90;0.70;;;;;;;12.11;57.09;100047.13;107351;1285;72459;-87
2023/04/25 14:16:01;;;;;;;0.80;0.70;;;;;;;12.16;57.12;100051.11;107308;1285;59654;-87
2023/04/25 14:19:47;;;;;;;1.70;1.20;;;;;;;12.23;57.19;100053.15;107618;1282;60003;-87
2023/04/25 14:23:34;;;;;;;3.70;1.40;;;;;;;12.36;57.39;100050.66;107624;1283;73398;-86
2023/04/25 14:27:31;;;;;;;;;;;;;;;;;;;;;
2023/04/25 14:31:08;;;;;;;2.60;1.30;;;;;;;12.58;57.54;100051.13;108440;1273;72627;-86
2023/04/25 14:34:55;;;;;;;4.60;1.40;;;;;;;12.66;57.63;100052.39;108285;1272;59394;-86
2023/04/25 14:38:41;;;;;;;2.50;1.60;;;;;;;12.74;57.70;100050.94;108424;1275;59108;-86
2023/04/25 14:42:28;;;;;;;2.00;1.30;;;;;;;12.83;57.69;100050.44;108436;1273;75724;-87
2023/04/25 14:46:15;;;;;;;1.90;1.10;;;;;;;12.87;57.76;100053.76;109062;1263;68501;-87
2023/04/25 14:50:01;;;;;;;3.20;1.40;;;;;;;12.74;57.78;100066.84;109053;1263;71623;-87
2023/04/25 14:53:48;;;;;;;1.70;1.30;;;;;;;12.57;57.71;100069.13;108473;1273;58967;-87
2023/04/25 14:57:35;;;;;;;2.10;1.70;;;;;;;12.44;57.93;100070.79;108477;1275;58919;-86
2023/04/25 15:01:22;;;;;;;2.30;1.20;;;;;;;12.30;57.96;100078.15;108429;1272;73253;-86
2023/04/25 15:05:09;;;;;;;3.00;1.80;;;;;;;12.16;58.03;100082.73;108447;1275;67111;-86
2023/04/25 15:11:31;;;;;;;2.70;1.40;;;;;;;11.93;57.93;100079.00;108870;1265;59402;-88
2023/04/25 15:15:18;;;;;;;4.50;1.80;;;;;;;11.88;58.14;100079.99;108416;1273;59862;-87
2023/04/25 15:19:08;;;;;;;5.20;2.50;;;;;;;11.84;58.14;100084.09;107890;1279;74056;-87
2023/04/25 15:22:55;;;;;;;3.40;2.00;;;;;;;11.83;58.27;100084.11;107962;1279;68596;-89
2023/04/25 15:26:41;;;;;;;4.90;1.90;;;;;;;11.83;58.18;100083.23;107959;1280;72426;-89
2023/04/25 15:30:28;;;;;;;6.10;3.20;;;;;;;11.86;58.16;100082.30;108019;1279;59003;-89
2023/04/25 15:34:15;;;;;;;3.70;2.20;;;;;;;11.94;58.22;100082.94;108038;1280;59001;-88
2023/04/25 15:38:01;;;;;;;10.30;3.00;;;;;;;11.98;57.88;100077.07;107407;1284;72296;-89
2023/04/25 15:41:47;;;;;;;12.90;3.00;;;;;;;12.01;57.89;100078.04;107476;1284;68459;-88
2023/04/25 15:45:36;;;;;;;8.30;2.50;;;;;;;11.99;57.84;100084.30;107502;1285;72370;-88
2023/04/25 15:49:21;;;;;;;9.40;2.30;;;;;;;11.98;57.78;100086.41;107473;1286;58879;-89
2023/04/25 15:53:08;;;;;;;9.60;2.60;;;;;;;11.99;57.73;100083.45;108100;1279;59418;-87
2023/04/25 15:56:55;;;;;;;14.30;2.20;;;;;;;11.99;57.64;100087.92;108538;1274;74074;-88
2023/04/25 16:00:42;;;;;;;12.20;2.80;;;;;;;12.04;57.56;100092.27;108509;1274;67422;-88
2023/04/25 16:04:34;;;;;;;8.80;3.40;;;;;;;12.14;57.54;100095.58;108494;1274;71295;-87
2023/04/25 16:08:14;;;;;;;10.00;2.40;;;;;;;12.23;57.32;100107.07;108427;1274;58837;-88
2023/04/25 16:12:01;;;;;;;7.30;2.10;;;;;;;12.18;57.03;100103.07;108465;1273;59784;-87
2023/04/25 16:15:49;;;;;;;10.00;2.00;;;;;;;12.11;56.79;100107.95;108891;1266;73327;-88
